createdAt,value
2023-01-17T00:03:57.382Z,18.23
2023-01-17T00:09:20.510Z,19.35
2023-01-17T00:14:25.214Z,17.48
2023-01-17T00:25:10.008Z,17.60
2023-01-17T00:30:14.326Z,16.48
2023-01-17T00:35:17.952Z,17.73
2023-01-17T00:40:22.713Z,17.47
2023-01-17T00:45:44.933Z,17.50
2023-01-17T00:51:07.167Z,17.13
2023-01-17T00:56:30.596Z,16.75
2023-01-17T01:01:54.226Z,15.63
2023-01-17T01:07:16.483Z,16.48
2023-01-17T01:12:39.923Z,17.27
2023-01-17T01:18:01.693Z,16.95
2023-01-17T01:23:24.359Z,18.38
2023-01-17T01:28:48.229Z,18.25
2023-01-17T01:33:53.666Z,18.25
2023-01-17T01:38:58.208Z,19.67
2023-01-17T01:44:04.384Z,17.50
2023-01-17T01:49:18.831Z,17.33
2023-01-17T01:59:33.914Z,18.83
2023-01-17T02:04:38.849Z,18.25
2023-01-17T02:09:43.710Z,18.40
2023-01-17T02:20:35.178Z,18.45
2023-01-17T02:31:18.855Z,16.58
2023-01-17T02:36:30.139Z,14.30
2023-01-17T02:41:38.744Z,11.32
2023-01-17T02:46:50.000Z,8.50
2023-01-17T02:52:21.833Z,7.95
2023-01-17T02:57:56.516Z,7.63
2023-01-17T03:03:14.188Z,6.50
2023-01-17T03:08:19.607Z,7.15
2023-01-17T03:13:24.337Z,6.60
2023-01-17T03:18:30.093Z,6.50
2023-01-17T03:23:34.337Z,6.03
2023-01-17T03:28:38.744Z,5.35
2023-01-17T03:33:45.155Z,5.82
2023-01-17T03:38:49.940Z,6.30
2023-01-17T03:49:00.463Z,5.85
2023-01-17T03:54:05.006Z,6.15
2023-01-17T03:59:11.520Z,4.63
2023-01-17T04:04:18.559Z,5.00
2023-01-17T04:09:23.056Z,5.15
2023-01-17T04:14:27.549Z,4.70
2023-01-17T04:19:36.756Z,5.22
2023-01-17T04:24:41.567Z,4.90
2023-01-17T04:29:46.866Z,5.40
2023-01-17T04:34:53.011Z,5.20
2023-01-17T04:39:57.663Z,5.72
2023-01-17T04:45:01.908Z,4.82
2023-01-17T04:50:09.078Z,4.80
2023-01-17T04:55:13.655Z,4.57
2023-01-17T05:00:19.961Z,5.45
2023-01-17T05:05:25.851Z,6.20
2023-01-17T05:10:30.631Z,5.70
2023-01-17T05:20:40.990Z,6.17
2023-01-17T05:25:45.538Z,5.38
2023-01-17T05:30:49.934Z,5.40
2023-01-17T05:35:56.711Z,4.50
2023-01-17T05:41:01.825Z,5.13
2023-01-17T05:46:06.675Z,4.63
2023-01-17T05:51:12.595Z,4.85
2023-01-17T05:56:17.047Z,5.30
2023-01-17T06:01:21.565Z,6.05
2023-01-17T06:11:32.052Z,5.93
2023-01-17T06:16:36.891Z,5.88
2023-01-17T06:26:47.316Z,8.60
2023-01-17T06:31:52.099Z,5.65
2023-01-17T06:42:02.437Z,6.20
2023-01-17T06:47:06.677Z,6.90
2023-01-17T06:52:12.317Z,6.60
2023-01-17T06:57:16.994Z,6.80
2023-01-17T07:07:27.535Z,8.77
2023-01-17T07:12:32.128Z,8.40
2023-01-17T07:17:37.030Z,7.70
2023-01-17T07:22:46.187Z,8.15
2023-01-17T07:27:53.978Z,7.78
2023-01-17T07:32:58.536Z,7.30
2023-01-17T07:38:05.959Z,8.68
2023-01-17T07:43:14.391Z,9.05
2023-01-17T07:48:20.148Z,8.65
2023-01-17T07:53:27.617Z,8.65
2023-01-17T07:58:33.236Z,8.80
2023-01-17T08:03:40.118Z,9.65
2023-01-17T08:08:46.812Z,8.25
2023-01-17T08:13:57.265Z,10.68
2023-01-17T08:19:02.456Z,9.57
2023-01-17T08:24:13.725Z,7.05
2023-01-17T08:29:19.048Z,6.78
2023-01-17T08:34:23.541Z,8.85
2023-01-17T08:44:33.713Z,7.28
2023-01-17T08:49:38.345Z,7.72
2023-01-17T08:54:44.381Z,6.47
2023-01-17T08:59:49.302Z,7.47
2023-01-17T09:04:53.831Z,7.28
2023-01-17T09:09:59.910Z,6.35
2023-01-17T09:15:05.169Z,6.88
2023-01-17T09:20:11.892Z,7.07
2023-01-17T09:25:18.025Z,8.13
2023-01-17T09:30:23.957Z,7.22
2023-01-17T09:35:28.700Z,7.35
2023-01-17T09:40:35.444Z,7.45
2023-01-17T09:45:40.728Z,7.28
2023-01-17T09:50:54.360Z,8.32
2023-01-17T09:56:05.720Z,7.13
2023-01-17T10:01:20.361Z,8.00
2023-01-17T10:12:02.284Z,6.65
2023-01-17T10:17:17.876Z,7.18
2023-01-17T10:22:46.644Z,7.22
2023-01-17T10:27:59.444Z,6.65
2023-01-17T10:33:13.825Z,6.35
2023-01-17T10:38:19.585Z,6.32
2023-01-17T10:43:35.970Z,5.93
2023-01-17T10:48:45.003Z,6.40
2023-01-17T10:54:07.577Z,5.90
2023-01-17T10:59:31.449Z,5.75
2023-01-17T11:04:38.963Z,5.63
2023-01-17T11:09:45.344Z,4.35
2023-01-17T11:15:04.993Z,4.70
2023-01-17T11:20:21.062Z,4.32
2023-01-17T11:25:26.475Z,5.30
2023-01-17T11:30:32.358Z,4.22
2023-01-17T11:35:39.002Z,4.10
2023-01-17T11:40:45.220Z,4.70
2023-01-17T11:46:07.820Z,3.75
2023-01-17T11:51:28.372Z,3.70
2023-01-17T11:56:35.064Z,3.33
2023-01-17T12:01:53.105Z,3.20
2023-01-17T12:07:25.628Z,3.33
2023-01-17T12:13:04.788Z,3.55
2023-01-17T12:18:34.917Z,3.05
2023-01-17T12:24:03.413Z,2.72
2023-01-17T12:29:44.724Z,2.97
2023-01-17T12:34:55.270Z,2.85
2023-01-17T12:40:07.204Z,3.28
2023-01-17T12:45:16.605Z,3.92
2023-01-17T12:50:29.614Z,3.08
2023-01-17T12:55:42.914Z,4.07
2023-01-17T13:00:52.236Z,3.25
2023-01-17T13:06:01.090Z,3.50
2023-01-17T13:11:12.599Z,3.80
2023-01-17T13:16:22.499Z,3.50
2023-01-17T13:21:33.022Z,3.30
2023-01-17T13:26:56.658Z,3.65
2023-01-17T13:32:16.228Z,3.95
2023-01-17T13:37:49.875Z,4.25
2023-01-17T13:42:57.176Z,3.22
2023-01-17T13:48:30.478Z,3.50
2023-01-17T13:53:55.186Z,4.55
2023-01-17T13:59:03.264Z,3.40
2023-01-17T14:04:09.267Z,4.43
2023-01-17T14:09:28.019Z,3.90
2023-01-17T14:14:52.141Z,3.22
2023-01-17T14:20:01.150Z,3.80
2023-01-17T14:25:18.670Z,3.53
2023-01-17T14:30:27.870Z,4.40
2023-01-17T14:35:36.461Z,4.75
2023-01-17T14:40:50.472Z,4.30
2023-01-17T14:46:01.476Z,4.22
2023-01-17T14:51:14.838Z,6.63
2023-01-17T14:56:20.832Z,5.78
2023-01-17T15:01:25.895Z,4.95
2023-01-17T15:06:38.703Z,5.30
2023-01-17T15:11:46.051Z,5.30
2023-01-17T15:16:52.104Z,5.55
2023-01-17T15:21:56.963Z,8.00
2023-01-17T15:27:03.390Z,9.35
2023-01-17T15:32:16.966Z,8.70
2023-01-17T15:37:30.127Z,9.25
2023-01-17T15:42:39.950Z,9.10
2023-01-17T15:47:44.847Z,9.73
2023-01-17T15:57:56.617Z,12.45
2023-01-17T16:03:01.585Z,12.25
2023-01-17T16:08:33.906Z,14.63
2023-01-17T16:13:42.434Z,18.48
2023-01-17T16:18:48.281Z,20.83
2023-01-17T16:23:53.572Z,22.52
2023-01-17T16:28:59.486Z,22.45
2023-01-17T16:34:04.186Z,22.40
2023-01-17T16:44:14.332Z,25.55
2023-01-17T16:49:18.976Z,23.80
2023-01-17T16:54:23.946Z,23.75
2023-01-17T17:04:53.865Z,23.65
2023-01-17T17:09:58.467Z,24.30
2023-01-17T17:15:05.316Z,26.50
2023-01-17T17:20:13.359Z,25.45
2023-01-17T17:25:18.738Z,25.05
2023-01-17T17:30:24.354Z,28.80
2023-01-17T17:35:28.707Z,35.20
2023-01-17T17:40:35.016Z,23.65
2023-01-17T17:45:40.870Z,19.63
2023-01-17T17:50:45.573Z,23.50
2023-01-17T18:01:02.429Z,26.63
2023-01-17T18:06:10.717Z,28.10
2023-01-17T18:11:18.811Z,30.77
2023-01-17T18:16:29.473Z,38.35
2023-01-17T18:21:37.930Z,41.63
2023-01-17T18:26:44.322Z,46.92
2023-01-17T18:31:51.696Z,45.17
2023-01-17T18:36:57.734Z,48.17
2023-01-17T18:46:38.109Z,48.58
2023-01-17T18:51:46.687Z,49.13
2023-01-17T18:56:52.662Z,47.60
2023-01-17T19:02:00.021Z,43.92
2023-01-17T19:07:05.557Z,38.78
2023-01-17T19:12:10.832Z,34.90
2023-01-17T19:17:18.915Z,28.30
2023-01-17T19:23:15.961Z,29.70
2023-01-17T19:31:43.293Z,28.33
2023-01-17T19:36:48.279Z,30.00
2023-01-17T19:41:52.731Z,38.50
2023-01-17T19:46:58.297Z,54.75
2023-01-17T19:52:02.797Z,39.13
2023-01-17T19:57:07.148Z,32.15
2023-01-17T20:07:17.538Z,27.48
2023-01-17T20:12:21.773Z,28.13
2023-01-17T20:17:27.525Z,27.95
2023-01-17T20:22:31.732Z,30.52
2023-01-17T20:27:36.334Z,28.33
2023-01-17T20:32:42.046Z,27.38
2023-01-17T20:37:46.692Z,27.83
2023-01-17T20:42:51.368Z,31.17
2023-01-17T20:53:01.986Z,33.38
2023-01-17T20:58:06.459Z,32.38
2023-01-17T21:08:18.655Z,39.42
2023-01-17T21:13:23.314Z,26.80
2023-01-17T21:23:36.345Z,22.00
2023-01-17T21:28:43.279Z,22.10
2023-01-17T21:33:49.852Z,24.25
2023-01-17T21:38:58.259Z,25.15
2023-01-17T21:44:05.375Z,26.58
2023-01-17T21:49:12.508Z,31.08
2023-01-17T21:54:17.251Z,29.95
2023-01-17T21:59:21.713Z,28.50
2023-01-17T22:04:29.528Z,29.05
2023-01-17T22:09:33.937Z,27.52
2023-01-17T22:14:39.535Z,28.05
2023-01-17T22:19:46.182Z,28.60
2023-01-17T22:24:50.780Z,28.00
2023-01-17T22:29:54.988Z,27.70
2023-01-17T22:35:00.596Z,26.55
2023-01-17T22:40:05.956Z,28.58
2023-01-17T22:45:11.463Z,30.00
2023-01-17T22:50:18.163Z,29.23
2023-01-17T22:55:22.632Z,32.20
2023-01-17T23:00:27.245Z,30.23
2023-01-17T23:05:33.069Z,31.70
2023-01-17T23:10:54.701Z,28.83
2023-01-17T23:16:16.378Z,30.50
2023-01-17T23:21:22.317Z,31.00
2023-01-17T23:26:26.777Z,31.27
2023-01-17T23:36:37.548Z,28.30
2023-01-17T23:41:59.264Z,27.55
2023-01-17T23:47:03.861Z,29.23
2023-01-17T23:52:09.700Z,27.00
2023-01-17T23:57:14.477Z,27.02
